createdAt,value
2022-08-08T00:12:06.815Z,100
2022-08-08T00:17:48.406Z,100
2022-08-08T00:22:40.460Z,100
2022-08-08T00:27:43.052Z,100
2022-08-08T00:32:45.999Z,100
2022-08-08T00:37:57.290Z,100
2022-08-08T00:42:50.935Z,100
2022-08-08T00:48:01.342Z,100
2022-08-08T00:52:56.756Z,100
2022-08-08T00:57:59.417Z,100
2022-08-08T01:03:57.679Z,100
2022-08-08T01:13:07.156Z,100
2022-08-08T01:18:16.221Z,100
2022-08-08T01:23:15.982Z,100
2022-08-08T01:28:15.941Z,100
2022-08-08T01:33:23.623Z,100
2022-08-08T01:38:23.529Z,100
2022-08-08T01:43:26.148Z,100
2022-08-08T01:48:31.174Z,100
2022-08-08T01:55:15.306Z,100
2022-08-08T01:58:38.969Z,100
2022-08-08T02:08:39.133Z,100
2022-08-08T02:13:53.493Z,100
2022-08-08T02:18:44.510Z,100
2022-08-08T02:23:47.187Z,100
2022-08-08T02:28:51.815Z,100
2022-08-08T02:34:00.853Z,100
2022-08-08T02:44:34.839Z,100
2022-08-08T02:49:05.925Z,100
2022-08-08T02:54:08.516Z,100
2022-08-08T02:59:17.394Z,100
2022-08-08T03:05:01.912Z,100
2022-08-08T03:09:16.559Z,100
2022-08-08T03:19:21.694Z,100
2022-08-08T03:24:24.161Z,100
2022-08-08T03:29:55.507Z,100
2022-08-08T03:34:29.161Z,100
2022-08-08T03:39:32.000Z,100
2022-08-08T03:44:34.814Z,100
2022-08-08T03:49:59.436Z,100
2022-08-08T04:04:45.778Z,100
2022-08-08T04:09:53.488Z,100
2022-08-08T04:19:53.760Z,100
2022-08-08T04:24:56.739Z,100
2022-08-08T04:30:01.202Z,100
2022-08-08T04:35:02.040Z,100
2022-08-08T04:40:07.734Z,100
2022-08-08T04:45:07.365Z,98.44922
2022-08-08T04:50:10.144Z,93.10938
2022-08-08T04:55:12.976Z,91.72852
2022-08-08T05:00:19.535Z,90.13281
2022-08-08T05:05:19.958Z,84.75977
2022-08-08T05:10:28.158Z,82.51758
2022-08-08T05:30:38.281Z,74.77637
2022-08-08T05:35:41.001Z,73.13477
2022-08-08T05:45:53.167Z,72.04785
2022-08-08T05:50:56.003Z,69.94141
2022-08-08T05:56:08.249Z,69.12891
2022-08-08T06:00:58.476Z,66.72559
2022-08-08T06:06:01.279Z,61.03027
2022-08-08T06:11:06.889Z,63.01367
2022-08-08T06:16:12.340Z,61.29688
2022-08-08T06:21:28.049Z,62.98242
2022-08-08T06:26:36.295Z,59.58203
2022-08-08T06:31:22.874Z,58.17285
2022-08-08T06:36:26.043Z,52.64941
2022-08-08T06:46:50.228Z,47.73145
2022-08-08T06:51:57.870Z,50.16797
2022-08-08T06:56:55.452Z,50.67871
2022-08-08T07:07:10.578Z,50.29492
2022-08-08T07:17:40.179Z,48.00293
2022-08-08T07:22:39.753Z,45.18457
2022-08-08T07:27:47.604Z,46.98242
2022-08-08T07:32:44.979Z,44.9873
2022-08-08T07:37:55.587Z,46.87402
2022-08-08T07:42:52.580Z,45.82715
2022-08-08T07:47:56.274Z,44.17969
2022-08-08T07:52:59.079Z,45.32617
2022-08-08T07:58:01.933Z,44.06738
2022-08-08T08:03:04.419Z,44.98926
2022-08-08T08:08:06.985Z,45.90234
2022-08-08T08:23:14.906Z,46.32422
2022-08-08T08:28:21.351Z,45.09863
2022-08-08T08:33:20.643Z,43.68848
2022-08-08T08:38:23.175Z,44.38281
2022-08-08T08:48:28.531Z,41.94531
2022-08-08T08:53:55.785Z,42.4248
2022-08-08T08:58:33.621Z,41.00977
2022-08-08T09:08:39.375Z,40.13477
2022-08-08T09:13:42.073Z,39.19043
2022-08-08T09:18:45.222Z,37.24316
2022-08-08T09:23:48.008Z,35.78809
2022-08-08T09:28:50.319Z,37.65137
2022-08-08T09:33:55.796Z,37.94434
2022-08-08T09:38:55.255Z,36.54004
2022-08-08T09:44:05.918Z,36.35742
2022-08-08T09:49:04.439Z,35.03125
2022-08-08T09:54:07.899Z,31.83887
2022-08-08T10:04:09.360Z,31.81641
2022-08-08T10:09:11.991Z,31.19238
2022-08-08T10:14:27.895Z,30.85547
2022-08-08T10:19:17.413Z,32.22461
2022-08-08T10:24:28.416Z,32.12207
2022-08-08T10:29:25.057Z,29.84961
2022-08-08T10:34:30.278Z,32.24023
2022-08-08T10:39:43.196Z,33.25391
2022-08-08T10:50:01.019Z,36.92578
2022-08-08T10:54:41.475Z,36.00391
2022-08-08T10:59:42.762Z,35.86719
2022-08-08T11:04:52.961Z,34.70508
2022-08-08T11:09:48.144Z,34.71387
2022-08-08T11:14:51.253Z,31.86914
2022-08-08T11:19:54.340Z,29.97559
2022-08-08T11:24:57.356Z,27.92871
2022-08-08T11:35:23.122Z,29.71484
2022-08-08T11:40:04.751Z,31.79688
2022-08-08T11:45:06.915Z,33.6377
2022-08-08T11:50:10.897Z,33.97656
2022-08-08T11:55:15.472Z,33.75977
2022-08-08T12:00:16.800Z,34.4541
2022-08-08T12:10:21.798Z,36.55566
2022-08-08T12:20:27.110Z,36.50195
2022-08-08T12:25:31.234Z,35.18164
2022-08-08T12:30:33.070Z,33.81934
2022-08-08T12:40:44.591Z,32.72363
2022-08-08T12:45:54.494Z,33.86816
2022-08-08T12:50:46.645Z,32.80664
2022-08-08T12:56:06.408Z,30.95703
2022-08-08T13:00:51.719Z,31.77734
2022-08-08T13:06:02.318Z,32.45898
2022-08-08T13:11:00.310Z,31.92188
2022-08-08T13:21:04.671Z,31.39941
2022-08-08T13:26:13.234Z,31.63867
2022-08-08T13:31:10.032Z,31.93555
2022-08-08T13:36:12.537Z,32.45215
2022-08-08T13:41:16.233Z,33.64258
2022-08-08T13:46:25.962Z,32.10059
2022-08-08T13:51:25.322Z,32.81641
2022-08-08T13:57:02.825Z,33.04688
2022-08-08T14:02:07.618Z,33.38867
2022-08-08T14:07:08.524Z,32.14648
2022-08-08T14:12:14.060Z,31.9541
2022-08-08T14:17:22.312Z,32.16504
2022-08-08T14:22:19.398Z,32.20313
2022-08-08T14:27:26.903Z,32.93359
2022-08-08T14:32:29.739Z,33.23145
2022-08-08T14:37:27.797Z,32.86816
2022-08-08T14:47:36.250Z,31.03809
2022-08-08T14:52:35.580Z,31.22461
2022-08-08T14:58:01.019Z,31.46484
2022-08-08T15:02:58.394Z,32.04199
2022-08-08T15:12:46.377Z,32.19336
2022-08-08T15:17:49.067Z,32.23535
2022-08-08T15:27:58.043Z,32.9541
2022-08-08T15:37:59.355Z,32.89453
2022-08-08T15:43:02.120Z,33.77051
2022-08-08T15:48:11.146Z,34.39941
2022-08-08T15:58:09.647Z,35.38965
2022-08-08T16:09:02.547Z,34.93555
2022-08-08T16:13:46.039Z,35.74609
2022-08-08T16:18:53.520Z,35.76758
2022-08-08T16:28:52.680Z,36.04785
2022-08-08T16:33:58.385Z,35.93262
2022-08-08T16:38:58.363Z,35.18359
2022-08-08T16:49:03.679Z,36.66699
2022-08-08T16:54:59.488Z,36.5127
2022-08-08T16:59:08.857Z,37.19336
2022-08-08T17:04:11.447Z,36.97559
2022-08-08T17:09:14.587Z,37.24609
2022-08-08T17:14:18.241Z,37.37793
2022-08-08T17:19:18.958Z,37.21387
2022-08-08T17:24:26.855Z,37.50391
2022-08-08T17:29:27.221Z,38.21387
2022-08-08T17:34:38.478Z,38.18945
2022-08-08T17:44:44.158Z,39.3252
2022-08-08T17:54:56.257Z,40.26855
2022-08-08T18:05:00.682Z,41.49219
2022-08-08T18:15:09.787Z,41.50879
2022-08-08T18:20:37.486Z,41.9043
2022-08-08T18:25:37.115Z,42.33594
2022-08-08T18:30:34.065Z,42.37891
2022-08-08T18:35:41.973Z,42.61328
2022-08-08T18:40:39.016Z,44.49316
2022-08-08T18:45:45.396Z,46.04688
2022-08-08T19:00:50.118Z,54.80957
2022-08-08T19:05:51.811Z,56.62891
2022-08-08T19:10:54.302Z,58.37402
2022-08-08T19:15:56.893Z,60.37109
2022-08-08T19:20:59.395Z,62.76172
2022-08-08T19:26:28.357Z,64.29199
2022-08-08T19:31:12.956Z,65.83984
2022-08-08T19:36:14.374Z,67.54395
2022-08-08T19:41:20.895Z,68.94727
2022-08-08T19:51:25.003Z,71.27148
2022-08-08T19:56:25.687Z,72.07617
2022-08-08T20:01:31.828Z,72.7041
2022-08-08T20:06:29.026Z,73.22266
2022-08-08T20:11:49.789Z,73.8457
2022-08-08T20:16:53.082Z,74.95605
2022-08-08T20:21:55.929Z,75.71191
2022-08-08T20:26:58.020Z,77.01953
2022-08-08T20:32:07.821Z,78.1709
2022-08-08T20:37:06.301Z,79.48047
2022-08-08T20:42:09.296Z,81.16211
2022-08-08T20:47:15.669Z,82.57129
2022-08-08T20:52:13.928Z,83.55469
2022-08-08T20:57:19.264Z,83.70508
2022-08-08T21:02:19.924Z,84.21094
2022-08-08T21:07:31.016Z,84.33008
2022-08-08T21:12:32.304Z,84.15918
2022-08-08T21:17:27.218Z,84.73535
2022-08-08T21:28:07.013Z,85.54004
2022-08-08T21:33:08.081Z,85.98633
2022-08-08T21:38:05.726Z,86.21582
2022-08-08T21:43:10.596Z,86.39648
2022-08-08T21:48:16.291Z,86.86621
2022-08-08T21:58:18.735Z,87.21289
2022-08-08T22:08:24.565Z,87.83301
2022-08-08T22:18:32.866Z,88.93262
2022-08-08T22:23:37.791Z,89.34473
2022-08-08T22:29:05.623Z,90.08789
2022-08-08T22:38:48.394Z,91.43945
2022-08-08T22:44:03.077Z,91.70508
2022-08-08T22:48:55.578Z,92.5498
2022-08-08T22:59:03.368Z,94.06641
2022-08-08T23:09:09.454Z,96.32129
2022-08-08T23:14:11.463Z,97.60352
2022-08-08T23:19:13.692Z,98.83789
2022-08-08T23:24:22.657Z,100
2022-08-08T23:29:19.117Z,100
2022-08-08T23:34:21.806Z,100
2022-08-08T23:39:24.385Z,100
2022-08-08T23:44:28.402Z,100
2022-08-08T23:49:29.590Z,100
2022-08-08T23:54:39.286Z,100
2022-08-08T23:59:34.939Z,100
